Latest Coastal Weather Observations for Maria Island

IDT60701

Issued at 5:12 pm EDT Tuesday 21 November 2017 (issued every 10 minutes, with the page automatically refreshed every 10 minutes)

About coastal observations | Map of coastal stations | Coastal observations for TAS | Marine services | Other Formats
Station Details ID: 092124 Name: MARIA ISLAND (POINT LESUEUR) Lat: -42.66 Lon: 148.02 Height: 28.0 m
Data from the previous 72 hours. | See also: Recent months at Maria Island
Date/Time
EDT
Temp
°C
Wind Pressure Rain since
9am
mm
Weather Cloud Vis
km
Sea
Height
m
Swell
Dir  Spd
kts
Gust
kts
hPa Trend Height
m
Period
s
Dir
21/05:00pm 20.0 N 16 19 1020.1 - 0.0 - - - - - - -
21/04:30pm 20.2 NNW 12 14 1020.2 - 0.0 - - - - - - -
21/04:00pm 20.1 N 17 20 1020.1 - 0.0 - - - - - - -
21/03:30pm 20.3 NNW 15 19 1020.2 - 0.0 - - - - - - -
21/03:00pm 20.7 N 19 21 1020.6 - 0.0 - - - - - - -
21/02:30pm 20.6 N 18 20 1020.8 - 0.0 - - - - - - -
21/02:00pm 21.2 N 16 19 1021.3 - 0.0 - - - - - - -
21/01:30pm 20.8 N 16 19 1021.6 - 0.0 - - - - - - -
21/01:00pm 21.3 N 17 20 1022.0 - 0.0 - - - - - - -
21/12:30pm 20.9 N 19 22 1022.1 - 0.0 - - - - - - -
21/12:00pm 20.5 N 20 22 1022.1 - 0.0 - - - - - - -
21/11:30am 19.4 N 24 26 1022.0 - 0.0 - - - - - - -
21/11:00am 19.9 N 22 25 1022.5 - 0.0 - - - - - - -
21/10:30am 20.1 N 19 22 1022.8 - 0.0 - - - - - - -
21/10:00am 19.2 N 21 25 1022.7 - 0.0 - - - - - - -
21/09:30am 18.0 N 21 25 1023.0 - 0.0 - - - - - - -
21/09:00am 17.6 N 19 21 1023.5 - 0.0 - - - - - - -
21/08:30am 16.9 N 19 22 1023.5 - 0.0 - - - - - - -
21/08:00am 16.5 N 19 23 1023.3 - 0.0 - - - - - - -
21/07:30am 15.9 N 18 20 1023.4 - 0.0 - - - - - - -
21/07:00am 15.6 N 17 20 1023.2 - 0.0 - - - - - - -
21/06:30am 15.3 N 18 21 1023.0 - 0.0 - - - - - - -
21/06:00am 14.9 NNE 16 19 1022.7 - 0.0 - - - - - - -
21/05:30am 14.8 NNE 15 18 1022.5 - 0.0 - - - - - - -
21/05:00am 14.9 NNE 15 17 1022.3 - 0.0 - - - - - - -
21/04:30am 14.9 NNE 16 19 1022.3 - 0.0 - - - - - - -
21/04:00am 15.2 N 15 17 1022.4 - 0.0 - - - - - - -
21/03:30am 15.3 N 18 20 1022.3 - 0.0 - - - - - - -
21/03:00am 15.5 N 13 16 1022.3 - 0.0 - - - - - - -
21/02:30am 15.3 N 14 16 1022.3 - 0.0 - - - - - - -
21/02:00am 15.5 N 14 16 1022.6 - 0.0 - - - - - - -
21/01:30am 15.8 N 14 17 1022.8 - 0.0 - - - - - - -
21/01:00am 15.9 N 15 18 1022.9 - 0.0 - - - - - - -
21/12:30am 16.0 N 14 17 1023.2 - 0.0 - - - - - - -
21/12:00am 16.2 N 17 19 1023.2 - 0.0 - - - - - - -
 
Date/Time
EDT
Temp
°C
Wind Pressure Rain since
9am
mm
Weather Cloud Vis
km
Sea
Height
m
Swell
Dir  Spd
kts
Gust
kts
hPa Trend Height
m
Period
s
Dir
20/11:30pm 16.3 N 18 21 1023.2 - 0.0 - - - - - - -
20/11:00pm 16.4 N 21 24 1023.2 - 0.0 - - - - - - -
20/10:30pm 16.6 N 22 26 1023.1 - 0.0 - - - - - - -
20/10:00pm 16.8 N 24 27 1023.0 - 0.0 - - - - - - -
20/09:30pm 16.9 N 22 27 1022.9 - 0.0 - - - - - - -
20/09:00pm 17.1 N 15 18 1023.4 - 0.0 - - - - - - -
20/08:30pm 16.4 N 12 14 1023.4 - 0.0 - - - - - - -
20/08:00pm 17.3 N 11 14 1023.4 - 0.0 - - - - - - -
20/07:30pm 17.4 N 10 12 1023.2 - 0.0 - - - - - - -
20/07:00pm 17.3 N 12 13 1023.1 - 0.0 - - - - - - -
20/06:30pm 18.2 N 16 18 1022.8 - 0.0 - - - - - - -
20/06:00pm 18.2 N 12 13 1022.9 - 0.0 - - - - - - -
20/05:30pm 18.3 N 15 17 1022.6 - 0.0 - - - - - - -
20/05:00pm 18.1 N 15 17 1022.7 - 0.0 - - - - - - -
20/04:30pm 18.7 N 15 17 1022.7 - 0.0 - - - - - - -
20/04:00pm 18.9 N 16 18 1022.9 - 0.0 - - - - - - -
20/03:30pm 19.8 N 15 17 1023.2 - 0.0 - - - - - - -
20/03:00pm 19.6 N 17 19 1023.3 - 0.0 - - - - - - -
20/02:30pm 19.6 N 18 19 1023.6 - 0.0 - - - - - - -
20/02:00pm 21.4 N 18 21 1023.6 - 0.0 - - - - - - -
20/01:30pm 20.8 N 20 22 1023.9 - 0.0 - - - - - - -
20/01:00pm 21.1 N 18 20 1024.1 - 0.0 - - - - - - -
20/12:30pm 21.5 N 16 18 1024.4 - 0.0 - - - - - - -
20/12:00pm 21.7 N 17 20 1024.6 - 0.0 - - - - - - -
20/11:30am 20.6 N 17 18 1024.8 - 0.0 - - - - - - -
20/11:00am 20.3 N 16 17 1025.0 - 0.0 - - - - - - -
20/10:30am 20.1 N 15 17 1025.3 - 0.0 - - - - - - -
20/10:00am 20.1 N 15 17 1025.2 - 0.0 - - - - - - -
20/09:30am 18.8 N 15 16 1025.2 - 0.0 - - - - - - -
20/09:00am 18.6 N 16 17 1025.3 - 0.0 - - - - - - -
20/08:30am 18.5 N 13 14 1025.4 - 0.0 - - - - - - -
20/08:00am 17.7 N 11 13 1025.4 - 0.0 - - - - - - -
20/07:30am 17.4 N 9 10 1025.3 - 0.0 - - - - - - -
20/07:00am 17.0 N 9 10 1025.2 - 0.0 - - - - - - -
20/06:30am 15.9 N 9 10 1025.0 - 0.0 - - - - - - -
20/06:00am 15.5 N 9 10 1024.8 - 0.0 - - - - - - -
20/05:30am 15.5 N 9 10 1024.5 - 0.0 - - - - - - -
20/05:00am 15.7 N 11 12 1024.3 - 0.0 - - - - - - -
20/04:30am 15.7 N 11 13 1024.3 - 0.0 - - - - - - -
20/04:00am 15.8 N 12 13 1024.1 - 0.0 - - - - - - -
20/03:30am 15.9 N 12 13 1023.9 - 0.0 - - - - - - -
20/03:00am 15.8 N 12 13 1023.8 - 0.0 - - - - - - -
20/02:30am 15.9 N 12 14 1023.9 - 0.0 - - - - - - -
20/02:00am 16.0 N 12 14 1023.9 - 0.0 - - - - - - -
20/01:30am 16.1 N 14 16 1023.7 - 0.0 - - - - - - -
20/01:00am 16.1 N 14 16 1023.9 - 0.0 - - - - - - -
20/12:30am 16.1 N 15 16 1024.0 - 0.0 - - - - - - -
20/12:00am 16.1 N 14 16 1024.1 - 0.0 - - - - - - -
 
Date/Time
EDT
Temp
°C
Wind Pressure Rain since
9am
mm
Weather Cloud Vis
km
Sea
Height
m
Swell
Dir  Spd
kts
Gust
kts
hPa Trend Height
m
Period
s
Dir
19/11:30pm 16.3 N 15 16 1024.2 - 0.0 - - - - - - -
19/11:00pm 16.1 N 13 15 1024.1 - 0.0 - - - - - - -
19/10:30pm 16.1 N 13 15 1024.1 - 0.0 - - - - - - -
19/10:00pm 16.4 N 14 17 1024.0 - 0.0 - - - - - - -
19/09:30pm 16.7 N 13 14 1024.0 - 0.0 - - - - - - -
19/09:00pm 16.5 N 11 13 1023.6 - 0.0 - - - - - - -
19/08:30pm 16.7 N 11 12 1023.4 - 0.0 - - - - - - -
19/08:00pm 17.3 N 13 14 1023.0 - 0.0 - - - - - - -
19/07:30pm 17.6 N 15 17 1022.8 - 0.0 - - - - - - -
19/07:00pm 18.4 N 14 17 1022.7 - 0.0 - - - - - - -
19/06:30pm 18.8 N 16 18 1022.4 - 0.0 - - - - - - -
19/06:00pm 19.1 N 15 17 1022.3 - 0.0 - - - - - - -
19/05:30pm 19.7 N 16 19 1022.2 - 0.0 - - - - - - -
19/05:00pm 20.3 N 19 21 1022.0 - 0.0 - - - - - - -
19/04:30pm 20.7 N 18 21 1021.9 - 0.0 - - - - - - -
19/04:00pm 20.7 N 18 21 1022.0 - 0.0 - - - - - - -
19/03:30pm 20.6 N 22 25 1022.2 - 0.0 - - - - - - -
19/03:00pm 20.7 N 20 23 1022.4 - 0.0 - - - - - - -
19/02:30pm 20.7 N 18 19 1022.8 - 0.0 - - - - - - -
19/02:00pm 21.2 N 15 17 1023.0 - 0.0 - - - - - - -
19/01:30pm 22.0 N 17 19 1023.1 - 0.0 - - - - - - -
19/01:00pm 22.0 N 18 20 1023.2 - 0.0 - - - - - - -
19/12:30pm 21.6 N 18 20 1023.3 - 0.0 - - - - - - -
19/12:00pm 21.8 N 17 19 1023.3 - 0.0 - - - - - - -
19/11:30am 21.2 N 14 17 1023.5 - 0.0 - - - - - - -
19/11:00am 20.9 N 17 19 1023.6 - 0.0 - - - - - - -
19/10:30am 20.7 N 15 17 1023.5 - 0.0 - - - - - - -
19/10:00am 19.9 N 13 15 1023.7 - 0.0 - - - - - - -
19/09:30am 20.8 N 14 17 1023.9 - 0.0 - - - - - - -
19/09:00am 19.2 N 16 18 1024.0 - 0.0 - - - - - - -
19/08:30am 18.2 N 15 17 1023.9 - 0.0 - - - - - - -
19/08:00am 17.2 N 12 13 1024.1 - 0.0 - - - - - - -
19/07:30am 16.6 N 10 12 1023.9 - 0.0 - - - - - - -
19/07:00am 15.5 NNW 9 11 1023.8 - 0.0 - - - - - - -
19/06:30am 16.0 N 12 14 1023.3 - 0.0 - - - - - - -
19/06:00am 15.3 N 15 17 1022.8 - 0.0 - - - - - - -
19/05:30am 15.1 NNE 14 16 1022.6 - 0.0 - - - - - - -
19/05:00am 14.9 N 11 14 1022.6 - 0.0 - - - - - - -
19/04:30am 15.1 N 13 15 1022.4 - 0.0 - - - - - - -
19/04:00am 15.1 N 13 17 1022.2 - 0.0 - - - - - - -
19/03:30am 15.2 N 14 16 1022.0 - 0.0 - - - - - - -
19/03:00am 15.3 N 16 19 1022.0 - 0.0 - - - - - - -
19/02:30am 15.4 N 18 21 1022.0 - 0.0 - - - - - - -
19/02:00am 15.4 N 16 20 1022.3 - 0.0 - - - - - - -
19/01:30am 15.5 N 17 22 1022.3 - 0.0 - - - - - - -
19/01:00am 15.7 N 23 26 1022.0 - 0.0 - - - - - - -
19/12:30am 15.9 N 24 28 1021.9 - 0.0 - - - - - - -
19/12:00am 16.1 N 26 30 1021.8 - 0.0 - - - - - - -
 
Date/Time
EDT
Temp
°C
Wind Pressure Rain since
9am
mm
Weather Cloud Vis
km
Sea
Height
m
Swell
Dir  Spd
kts
Gust
kts
hPa Trend Height
m
Period
s
Dir
18/11:30pm 16.1 N 27 32 1021.3 - 0.0 - - - - - - -
18/11:00pm 16.3 N 27 31 1021.5 - 0.0 - - - - - - -
18/10:30pm 16.4 N 28 31 1021.8 - 0.0 - - - - - - -
18/10:00pm 16.8 N 28 32 1021.5 - 0.0 - - - - - - -
18/09:30pm 17.1 N 28 33 1021.3 - 0.0 - - - - - - -
18/09:00pm 17.0 N 25 29 1021.4 - 0.0 - - - - - - -
18/08:30pm 17.1 N 24 28 1021.1 - 0.0 - - - - - - -
18/08:00pm 17.1 N 22 25 1021.2 - 0.0 - - - - - - -
18/07:30pm 17.2 N 20 23 1021.0 - 0.0 - - - - - - -
18/07:00pm 17.6 N 20 24 1020.7 - 0.0 - - - - - - -
18/06:30pm 18.4 N 20 24 1020.1 - 0.0 - - - - - - -
18/06:00pm 19.1 N 21 25 1019.8 - 0.0 - - - - - - -
18/05:30pm 19.5 N 20 24 1020.1 - 0.0 - - - - - - -

Other Formats:

Comma delimited format used in spreadsheet applications
http://www.bom.gov.au/fwo/IDT60701/IDT60701.95988.axf

JavaScript Object Notation format (JSON) in row-major order
http://www.bom.gov.au/fwo/IDT60701/IDT60701.95988.json